Time;durP1;ratioP1;P1;durP2;ratioP2;P2;SDS_P1;SDS_P2;PMS_P1;PMS_P2;Temp;Humidity;BMP_temperature;BMP_pressure;BME280_temperature;BME280_humidity;BME280_pressure;Samples;Min_cycle;Max_cycle;Signal;HPM_P1;HPM_P2
2021/04/21 00:00:25;;;;;;;80.57;36.30;;;;;;;;;;5081258;28;32659;-72
2021/04/21 00:02:52;;;;;;;82.75;35.53;;;;;;;;;;5083872;28;32293;-76
2021/04/21 00:05:19;;;;;;;78.80;35.67;;;;;;;;;;5084331;28;31981;-73
2021/04/21 00:07:45;;;;;;;72.25;32.58;;;;;;;;;;5084464;28;32060;-76
2021/04/21 00:10:11;;;;;;;80.70;36.22;;;;;;;;;;5083819;28;33596;-72
2021/04/21 00:12:37;;;;;;;69.50;33.00;;;;;;;;;;5084309;28;32313;-72
2021/04/21 00:15:05;;;;;;;75.72;34.55;;;;;;;;;;5083870;28;31986;-71
2021/04/21 00:17:31;;;;;;;79.07;34.45;;;;;;;;;;5083464;28;32008;-72
2021/04/21 00:19:57;;;;;;;76.47;34.53;;;;;;;;;;5083826;28;33529;-72
2021/04/21 00:22:26;;;;;;;79.15;35.50;;;;;;;;;;5083202;28;33365;-72
2021/04/21 00:24:52;;;;;;;74.78;33.75;;;;;;;;;;5083962;28;32866;-72
2021/04/21 00:27:19;;;;;;;77.40;34.00;;;;;;;;;;5083643;28;31943;-72
2021/04/21 00:29:46;;;;;;;69.68;32.65;;;;;;;;;;5083080;28;32741;-71
2021/04/21 00:32:12;;;;;;;72.20;34.35;;;;;;;;;;5084232;28;32308;-71
2021/04/21 00:34:39;;;;;;;81.15;35.58;;;;;;;;;;5083962;28;32103;-73
2021/04/21 00:37:05;;;;;;;75.82;34.03;;;;;;;;;;5083514;28;32661;-71
2021/04/21 00:39:31;;;;;;;74.35;33.78;;;;;;;;;;5083209;28;32564;-72
2021/04/21 00:42:09;;;;;;;85.38;35.80;;;;;;;;;;5083221;28;32066;-73
2021/04/21 00:44:53;;;;;;;79.65;35.30;;;;;;;;;;5081940;28;31238;-72
2021/04/21 00:47:33;;;;;;;76.93;35.70;;;;;;;;;;5080961;28;31106;-76
2021/04/21 00:50:01;;;;;;;90.07;35.10;;;;;;;;;;5080483;28;32558;-77
2021/04/21 00:52:37;;;;;;;79.03;34.30;;;;;;;;;;5081741;28;30966;-77
2021/04/21 00:55:09;;;;;;;81.32;35.05;;;;;;;;;;5081574;28;30506;-77
2021/04/21 00:57:51;;;;;;;76.22;35.13;;;;;;;;;;5082085;28;30829;-77
2021/04/21 01:00:19;;;;;;;79.40;36.88;;;;;;;;;;5083670;28;32639;-77
2021/04/21 01:03:05;;;;;;;82.22;36.90;;;;;;;;;;5082702;28;33021;-77
2021/04/21 01:05:35;;;;;;;78.95;35.60;;;;;;;;;;5080076;28;32974;-75
2021/04/21 01:08:05;;;;;;;80.90;36.30;;;;;;;;;;5081370;28;32035;-77
2021/04/21 01:10:33;;;;;;;74.38;33.30;;;;;;;;;;5083042;28;33585;-77
2021/04/21 01:13:00;;;;;;;79.32;35.60;;;;;;;;;;5081834;28;33260;-76
2021/04/21 01:15:27;;;;;;;82.43;33.72;;;;;;;;;;5081464;28;30895;-76
2021/04/21 01:17:53;;;;;;;77.32;33.90;;;;;;;;;;5080098;28;31857;-77
2021/04/21 01:20:30;;;;;;;71.47;33.13;;;;;;;;;;5082714;28;32616;-76
2021/04/21 01:22:59;;;;;;;73.93;33.75;;;;;;;;;;5083182;28;33280;-76
2021/04/21 01:25:38;;;;;;;73.22;32.83;;;;;;;;;;5082911;28;32030;-72
2021/04/21 01:28:17;;;;;;;77.30;33.25;;;;;;;;;;5081459;28;31993;-72
2021/04/21 01:30:43;;;;;;;66.80;33.05;;;;;;;;;;5081503;28;32603;-72
2021/04/21 01:33:17;;;;;;;75.90;34.55;;;;;;;;;;5082408;28;32482;-71
2021/04/21 01:35:44;;;;;;;73.97;32.85;;;;;;;;;;5082379;28;32055;-71
2021/04/21 01:38:11;;;;;;;74.50;33.17;;;;;;;;;;5082514;28;32694;-72
2021/04/21 01:40:37;;;;;;;76.68;32.30;;;;;;;;;;5082425;28;33599;-72
2021/04/21 01:43:08;;;;;;;72.18;31.75;;;;;;;;;;5082323;28;32278;-72
2021/04/21 01:45:35;;;;;;;71.80;30.67;;;;;;;;;;5082293;28;31914;-72
2021/04/21 01:48:02;;;;;;;72.28;31.58;;;;;;;;;;5080413;28;31364;-72
2021/04/21 01:50:28;;;;;;;72.93;31.98;;;;;;;;;;5082033;28;32346;-72
2021/04/21 01:53:05;;;;;;;75.78;32.83;;;;;;;;;;5082322;28;32279;-72
2021/04/21 01:55:42;;;;;;;77.85;34.53;;;;;;;;;;5082081;28;31989;-72
2021/04/21 01:58:43;;;;;;;73.90;32.75;;;;;;;;;;5082203;28;32994;-76
2021/04/21 02:01:27;;;;;;;72.30;32.25;;;;;;;;;;5079263;28;32841;-76
2021/04/21 02:04:13;;;;;;;80.00;34.38;;;;;;;;;;5080668;28;33149;-76
2021/04/21 02:06:39;;;;;;;76.72;34.17;;;;;;;;;;5081559;28;32547;-76
2021/04/21 02:09:08;;;;;;;73.50;33.83;;;;;;;;;;5081820;28;32042;-71
2021/04/21 02:11:34;;;;;;;80.47;32.22;;;;;;;;;;5081728;28;33604;-73
2021/04/21 02:14:12;;;;;;;70.88;31.70;;;;;;;;;;5081822;28;32230;-72
2021/04/21 02:16:40;;;;;;;70.70;32.17;;;;;;;;;;5081709;28;33038;-72
2021/04/21 02:19:25;;;;;;;76.43;32.40;;;;;;;;;;5080896;28;32153;-74
2021/04/21 02:22:03;;;;;;;76.85;33.47;;;;;;;;;;5081907;28;32672;-72
2021/04/21 02:24:34;;;;;;;72.00;31.85;;;;;;;;;;5082282;28;32463;-71
2021/04/21 02:27:19;;;;;;;69.57;32.15;;;;;;;;;;5079341;28;32013;-72
2021/04/21 02:29:59;;;;;;;68.40;31.25;;;;;;;;;;5081891;28;31892;-71
2021/04/21 02:32:47;;;;;;;70.82;32.15;;;;;;;;;;5082038;28;32597;-72
2021/04/21 02:35:19;;;;;;;72.18;31.02;;;;;;;;;;5081441;28;33568;-71
2021/04/21 02:37:50;;;;;;;73.35;33.13;;;;;;;;;;5081445;28;32157;-71
2021/04/21 02:40:20;;;;;;;77.00;33.15;;;;;;;;;;5080310;28;31888;-72
2021/04/21 02:43:04;;;;;;;72.38;32.45;;;;;;;;;;5081544;28;32075;-71
2021/04/21 02:45:42;;;;;;;76.28;34.13;;;;;;;;;;5081512;28;32445;-72
2021/04/21 02:48:11;;;;;;;75.68;34.42;;;;;;;;;;5079830;28;31948;-72
2021/04/21 02:50:49;;;;;;;72.50;33.90;;;;;;;;;;5081516;28;32042;-72
2021/04/21 02:53:33;;;;;;;77.60;34.05;;;;;;;;;;5081315;28;32691;-72
2021/04/21 02:56:15;;;;;;;87.63;35.47;;;;;;;;;;5078510;28;32394;-72
2021/04/21 02:58:49;;;;;;;75.70;34.55;;;;;;;;;;5081396;28;31948;-72
2021/04/21 03:01:33;;;;;;;80.72;36.05;;;;;;;;;;5079609;28;30973;-72
2021/04/21 03:04:13;;;;;;;83.78;38.35;;;;;;;;;;5080787;28;33631;-72
2021/04/21 03:06:41;;;;;;;75.43;33.42;;;;;;;;;;5081630;28;32291;-72
2021/04/21 03:09:09;;;;;;;71.97;33.35;;;;;;;;;;5081556;28;32071;-72
2021/04/21 03:11:35;;;;;;;87.72;36.65;;;;;;;;;;5080763;28;32068;-72
2021/04/21 03:14:02;;;;;;;82.75;37.53;;;;;;;;;;5080991;28;32692;-72
2021/04/21 03:16:29;;;;;;;91.97;37.80;;;;;;;;;;5081413;28;33362;-72
2021/04/21 03:18:57;;;;;;;74.63;35.47;;;;;;;;;;5080939;28;31895;-72
2021/04/21 03:21:30;;;;;;;83.25;35.88;;;;;;;;;;5080531;28;33219;-72
2021/04/21 03:24:10;;;;;;;86.65;35.42;;;;;;;;;;5080832;28;32605;-71
2021/04/21 03:26:37;;;;;;;88.47;35.50;;;;;;;;;;5080823;28;33254;-72
2021/04/21 03:29:04;;;;;;;82.43;35.95;;;;;;;;;;5080787;28;32615;-72
2021/04/21 03:31:33;;;;;;;79.60;35.30;;;;;;;;;;5080854;28;32174;-72
2021/04/21 03:34:01;;;;;;;81.15;36.78;;;;;;;;;;5080197;28;32737;-72
2021/04/21 03:36:28;;;;;;;79.90;34.50;;;;;;;;;;5080828;28;32364;-71
2021/04/21 03:38:54;;;;;;;81.57;37.03;;;;;;;;;;5080664;28;32166;-76
2021/04/21 03:41:20;;;;;;;75.43;35.38;;;;;;;;;;5080720;28;32085;-76
2021/04/21 03:43:46;;;;;;;77.75;36.13;;;;;;;;;;5080451;28;32537;-75
2021/04/21 03:46:12;;;;;;;79.90;36.47;;;;;;;;;;5080420;28;33244;-76
2021/04/21 03:48:38;;;;;;;74.93;34.75;;;;;;;;;;5081098;28;32065;-77
2021/04/21 03:51:04;;;;;;;80.05;35.35;;;;;;;;;;5080887;28;32107;-75
2021/04/21 03:53:32;;;;;;;72.63;32.22;;;;;;;;;;5086581;28;32196;-76
2021/04/21 03:55:58;;;;;;;80.78;32.83;;;;;;;;;;5086812;28;33532;-77
2021/04/21 03:58:25;;;;;;;75.72;33.47;;;;;;;;;;5082828;28;32082;-77
2021/04/21 04:00:56;;;;;;;76.75;34.17;;;;;;;;;;5078308;28;32479;-76
2021/04/21 04:03:23;;;;;;;76.63;34.33;;;;;;;;;;5077817;28;32717;-76
2021/04/21 04:05:54;;;;;;;73.47;32.15;;;;;;;;;;5079924;28;32394;-75
2021/04/21 04:08:21;;;;;;;82.68;34.90;;;;;;;;;;5079937;28;31992;-76
2021/04/21 04:10:49;;;;;;;80.30;35.78;;;;;;;;;;5080145;28;32038;-76
2021/04/21 04:13:15;;;;;;;76.60;32.75;;;;;;;;;;5080235;28;32772;-76
2021/04/21 04:15:42;;;;;;;73.75;32.85;;;;;;;;;;5079951;28;32064;-76
2021/04/21 04:18:09;;;;;;;71.38;31.33;;;;;;;;;;5080400;28;32266;-76
2021/04/21 04:20:36;;;;;;;69.22;31.35;;;;;;;;;;5080540;28;32039;-72
2021/04/21 04:23:06;;;;;;;75.35;34.13;;;;;;;;;;5083022;28;32503;-72
2021/04/21 04:25:36;;;;;;;68.43;30.75;;;;;;;;;;5083475;28;32417;-72
2021/04/21 04:28:02;;;;;;;71.95;33.05;;;;;;;;;;5082817;28;32626;-72
2021/04/21 04:30:28;;;;;;;79.15;34.47;;;;;;;;;;5083557;28;32181;-73
2021/04/21 04:32:57;;;;;;;80.38;34.38;;;;;;;;;;5083441;28;32518;-72
2021/04/21 04:35:23;;;;;;;75.00;33.50;;;;;;;;;;5082441;28;33242;-72
2021/04/21 04:37:49;;;;;;;80.57;34.67;;;;;;;;;;5080888;28;33012;-72
2021/04/21 04:40:15;;;;;;;68.85;32.30;;;;;;;;;;5083094;28;32746;-71
2021/04/21 04:42:41;;;;;;;70.55;31.92;;;;;;;;;;5083672;28;32649;-72
2021/04/21 04:45:10;;;;;;;80.85;32.83;;;;;;;;;;5083167;28;33328;-71
2021/04/21 04:47:38;;;;;;;78.68;34.35;;;;;;;;;;5081442;28;31803;-71
2021/04/21 04:50:05;;;;;;;78.05;33.92;;;;;;;;;;5083031;28;32955;-72
2021/04/21 04:52:32;;;;;;;75.55;31.83;;;;;;;;;;5080394;28;32701;-71
2021/04/21 04:54:59;;;;;;;85.88;33.58;;;;;;;;;;5083427;28;32246;-70
2021/04/21 04:57:25;;;;;;;82.13;33.80;;;;;;;;;;5082792;28;33325;-72
2021/04/21 04:59:51;;;;;;;69.13;30.60;;;;;;;;;;5083014;28;32035;-71
2021/04/21 05:02:18;;;;;;;80.88;33.60;;;;;;;;;;5083478;28;33315;-72
2021/04/21 05:04:51;;;;;;;81.35;34.05;;;;;;;;;;5083389;28;32330;-72
2021/04/21 05:07:22;;;;;;;80.97;34.47;;;;;;;;;;5083550;28;32083;-71
2021/04/21 05:09:50;;;;;;;83.85;35.78;;;;;;;;;;5080253;28;33135;-70
2021/04/21 05:12:16;;;;;;;75.18;35.58;;;;;;;;;;5082863;28;32685;-70
2021/04/21 05:14:46;;;;;;;85.30;34.92;;;;;;;;;;5082775;28;33170;-71
2021/04/21 05:17:30;;;;;;;80.75;34.33;;;;;;;;;;5083081;28;31940;-71
2021/04/21 05:19:56;;;;;;;;;;;;;;;;;;5083948;28;31698;-70
2021/04/21 05:22:41;;;;;;;87.45;36.05;;;;;;;;;;5082552;28;33488;-70
2021/04/21 05:25:25;;;;;;;87.05;36.40;;;;;;;;;;5082697;28;33327;-71
2021/04/21 05:28:11;;;;;;;89.10;38.30;;;;;;;;;;5082417;28;31970;-70
2021/04/21 05:30:40;;;;;;;82.22;36.72;;;;;;;;;;5080868;28;32040;-71
2021/04/21 05:33:05;;;;;;;89.80;38.30;;;;;;;;;;5078877;28;32663;-71
2021/04/21 05:35:50;;;;;;;81.50;36.10;;;;;;;;;;5082057;28;32362;-71
2021/04/21 05:38:34;;;;;;;84.30;37.05;;;;;;;;;;5086017;28;32039;-71
2021/04/21 05:41:06;;;;;;;82.22;34.38;;;;;;;;;;5081952;28;32077;-71
2021/04/21 05:43:41;;;;;;;89.10;37.13;;;;;;;;;;5079681;28;32750;-71
2021/04/21 05:46:06;;;;;;;86.80;34.90;;;;;;;;;;5081944;28;32458;-72
2021/04/21 05:48:41;;;;;;;88.15;35.80;;;;;;;;;;5082102;28;32052;-73
2021/04/21 05:51:12;;;;;;;85.07;37.40;;;;;;;;;;5081753;28;33081;-73
2021/04/21 05:53:44;;;;;;;82.95;36.42;;;;;;;;;;5079491;28;33259;-72
2021/04/21 05:56:14;;;;;;;86.13;37.00;;;;;;;;;;5081712;28;32297;-74
2021/04/21 05:58:56;;;;;;;85.00;34.10;;;;;;;;;;5081938;28;32075;-77
2021/04/21 06:01:26;;;;;;;81.78;36.63;;;;;;;;;;5081938;28;33001;-76
2021/04/21 06:03:54;;;;;;;86.90;37.58;;;;;;;;;;5081889;28;32685;-78
2021/04/21 06:06:19;;;;;;;84.93;36.17;;;;;;;;;;5082627;28;33005;-77
2021/04/21 06:08:45;;;;;;;78.13;34.47;;;;;;;;;;5081790;28;32712;-73
2021/04/21 06:11:18;;;;;;;77.40;35.90;;;;;;;;;;5081823;28;32958;-74
2021/04/21 06:13:44;;;;;;;80.22;35.00;;;;;;;;;;5082100;28;32915;-77
2021/04/21 06:16:10;;;;;;;75.05;34.15;;;;;;;;;;5081914;28;32277;-72
2021/04/21 06:18:36;;;;;;;76.43;33.10;;;;;;;;;;5081854;28;31939;-73
2021/04/21 06:21:13;;;;;;;77.00;33.75;;;;;;;;;;5081715;28;32998;-74
2021/04/21 06:23:39;;;;;;;82.13;35.47;;;;;;;;;;5081904;28;33075;-74
2021/04/21 06:26:05;;;;;;;68.25;28.83;;;;;;;;;;5081276;28;32455;-71
2021/04/21 06:28:30;;;;;;;80.10;35.20;;;;;;;;;;5082146;28;32141;-84
2021/04/21 06:31:11;;;;;;;76.55;33.72;;;;;;;;;;5084871;28;31905;-81
2021/04/21 06:33:38;;;;;;;80.53;35.25;;;;;;;;;;5086251;28;33246;-84
2021/04/21 06:36:04;;;;;;;74.35;33.25;;;;;;;;;;5087682;28;33595;-75
2021/04/21 06:38:31;;;;;;;72.18;33.88;;;;;;;;;;5092284;28;31619;-77
2021/04/21 06:40:57;;;;;;;79.75;36.53;;;;;;;;;;5086631;28;32016;-84
2021/04/21 06:43:23;;;;;;;80.10;33.15;;;;;;;;;;5082301;28;33618;-88
2021/04/21 06:45:51;;;;;;;77.70;31.17;;;;;;;;;;5081260;28;33326;-73
2021/04/21 06:48:25;;;;;;;78.25;33.10;;;;;;;;;;5080761;28;32888;-73
2021/04/21 06:50:50;;;;;;;;;;;;;;;;;;5079713;28;32076;-71
2021/04/21 06:53:16;;;;;;;64.22;29.20;;;;;;;;;;5081525;28;32757;-72
2021/04/21 06:55:42;;;;;;;77.80;32.28;;;;;;;;;;5081433;28;33261;-72
2021/04/21 06:58:17;;;;;;;78.97;33.53;;;;;;;;;;5081366;28;32141;-72
2021/04/21 07:00:43;;;;;;;63.50;31.40;;;;;;;;;;5081646;28;32596;-72
2021/04/21 07:03:14;;;;;;;59.60;26.83;;;;;;;;;;5081272;28;33556;-76
2021/04/21 07:05:42;;;;;;;68.47;33.58;;;;;;;;;;5081827;28;32554;-77
2021/04/21 07:08:15;;;;;;;69.43;29.20;;;;;;;;;;5079872;28;30563;-76
2021/04/21 07:10:59;;;;;;;64.00;29.33;;;;;;;;;;5081116;28;32617;-76
2021/04/21 07:13:26;;;;;;;64.47;27.73;;;;;;;;;;5078540;28;33256;-77
2021/04/21 07:15:56;;;;;;;64.10;24.95;;;;;;;;;;5081616;28;32298;-74
2021/04/21 07:18:23;;;;;;;57.20;25.67;;;;;;;;;;5081497;28;33072;-75
2021/04/21 07:20:49;;;;;;;53.55;23.85;;;;;;;;;;5080833;28;32559;-75
2021/04/21 07:23:19;;;;;;;60.00;24.83;;;;;;;;;;5081483;28;33541;-75
2021/04/21 07:25:46;;;;;;;50.60;23.25;;;;;;;;;;5076931;28;32154;-74
2021/04/21 07:28:12;;;;;;;62.15;22.90;;;;;;;;;;5080750;28;32072;-73
2021/04/21 07:30:38;;;;;;;51.72;22.30;;;;;;;;;;5080745;28;32323;-75
2021/04/21 07:33:03;;;;;;;49.42;21.48;;;;;;;;;;5081003;28;33287;-74
2021/04/21 07:35:30;;;;;;;37.92;15.95;;;;;;;;;;5081136;28;32267;-74
2021/04/21 07:37:56;;;;;;;48.72;22.73;;;;;;;;;;5081078;28;31989;-70
2021/04/21 07:40:27;;;;;;;44.70;19.65;;;;;;;;;;5080673;28;32057;-70
2021/04/21 07:43:12;;;;;;;48.67;18.83;;;;;;;;;;5080627;28;32632;-70
2021/04/21 07:45:48;;;;;;;44.67;21.15;;;;;;;;;;5080675;28;32305;-70
2021/04/21 07:48:33;;;;;;;41.85;20.08;;;;;;;;;;5080282;28;32025;-70
2021/04/21 07:51:26;;;;;;;44.67;19.60;;;;;;;;;;5077756;28;31939;-70
2021/04/21 07:54:03;;;;;;;40.42;19.60;;;;;;;;;;5077589;28;32764;-70
2021/04/21 07:56:35;;;;;;;43.45;18.88;;;;;;;;;;5080894;28;33221;-70
2021/04/21 07:59:14;;;;;;;47.65;18.17;;;;;;;;;;5083618;28;31916;-70
2021/04/21 08:01:40;;;;;;;32.92;16.45;;;;;;;;;;5082580;28;30439;-70
2021/04/21 08:04:15;;;;;;;37.58;17.25;;;;;;;;;;5083811;28;32669;-70
2021/04/21 08:06:41;;;;;;;37.75;17.45;;;;;;;;;;5084346;28;31907;-70
2021/04/21 08:09:07;;;;;;;34.08;17.05;;;;;;;;;;5083465;28;31999;-70
2021/04/21 08:11:32;;;;;;;40.03;18.08;;;;;;;;;;5084366;28;32513;-71
2021/04/21 08:13:58;;;;;;;26.83;10.43;;;;;;;;;;5083723;28;32563;-70
2021/04/21 08:16:24;;;;;;;18.05;8.75;;;;;;;;;;5083789;28;32904;-70
2021/04/21 08:18:50;;;;;;;9.77;5.18;;;;;;;;;;5083747;28;32658;-71
2021/04/21 08:21:34;;;;;;;32.42;13.73;;;;;;;;;;5083660;28;31829;-71
2021/04/21 08:24:00;;;;;;;29.80;14.73;;;;;;;;;;5082360;28;31329;-70
2021/04/21 08:26:26;;;;;;;41.60;18.40;;;;;;;;;;5083562;28;32199;-76
2021/04/21 08:28:52;;;;;;;44.30;14.65;;;;;;;;;;5080888;28;31923;-69
2021/04/21 08:31:23;;;;;;;42.05;18.15;;;;;;;;;;5083677;28;33013;-70
2021/04/21 08:33:49;;;;;;;35.85;16.10;;;;;;;;;;5080948;28;33537;-70
2021/04/21 08:36:15;;;;;;;39.65;17.85;;;;;;;;;;5083600;28;32235;-70
2021/04/21 08:38:40;;;;;;;40.10;17.05;;;;;;;;;;5083303;28;32004;-73
2021/04/21 08:41:07;;;;;;;41.08;16.92;;;;;;;;;;5083432;28;31931;-76
2021/04/21 08:43:36;;;;;;;45.55;17.77;;;;;;;;;;5083494;28;33590;-73
2021/04/21 08:46:02;;;;;;;43.22;15.98;;;;;;;;;;5083618;28;33290;-71
2021/04/21 08:48:28;;;;;;;38.35;16.50;;;;;;;;;;5082652;28;32658;-72
2021/04/21 08:50:55;;;;;;;36.58;15.85;;;;;;;;;;5080428;28;31965;-71
2021/04/21 08:53:20;;;;;;;29.38;14.38;;;;;;;;;;5082940;28;33660;-71
2021/04/21 08:55:48;;;;;;;35.92;15.07;;;;;;;;;;5083319;28;32265;-72
2021/04/21 08:58:13;;;;;;;37.42;15.27;;;;;;;;;;5083715;28;32445;-72
2021/04/21 09:00:41;;;;;;;42.42;18.63;;;;;;;;;;5082858;28;31915;-71
2021/04/21 09:03:07;;;;;;;29.40;15.10;;;;;;;;;;5083196;28;32476;-71
2021/04/21 09:05:32;;;;;;;35.70;16.00;;;;;;;;;;5082900;28;32198;-71
2021/04/21 09:07:59;;;;;;;33.45;14.82;;;;;;;;;;5081324;28;30648;-71
2021/04/21 09:10:24;;;;;;;30.90;15.02;;;;;;;;;;5082516;28;32956;-71
2021/04/21 09:12:50;;;;;;;33.42;15.52;;;;;;;;;;5082537;28;32461;-73
2021/04/21 09:15:17;;;;;;;28.48;14.00;;;;;;;;;;5082562;28;32507;-72
2021/04/21 09:17:43;;;;;;;37.95;14.77;;;;;;;;;;5082651;28;32997;-74
2021/04/21 09:20:12;;;;;;;32.78;16.08;;;;;;;;;;5082769;28;33053;-76
2021/04/21 09:22:57;;;;;;;33.17;14.45;;;;;;;;;;5082494;28;33281;-72
2021/04/21 09:25:23;;;;;;;30.38;14.23;;;;;;;;;;5082586;28;32208;-69
2021/04/21 09:27:55;;;;;;;34.13;14.30;;;;;;;;;;5081843;28;32140;-70
2021/04/21 09:30:22;;;;;;;39.25;15.57;;;;;;;;;;5082714;28;31982;-70
2021/04/21 09:32:52;;;;;;;29.15;13.85;;;;;;;;;;5083056;28;32579;-70
2021/04/21 09:35:19;;;;;;;30.55;13.55;;;;;;;;;;5082403;28;32271;-70
2021/04/21 09:37:45;;;;;;;33.25;14.55;;;;;;;;;;5082351;28;31916;-69
2021/04/21 09:40:11;;;;;;;30.23;13.70;;;;;;;;;;5082998;28;33088;-70
2021/04/21 09:42:38;;;;;;;19.65;9.18;;;;;;;;;;5082529;28;33421;-70
2021/04/21 09:45:04;;;;;;;25.02;10.40;;;;;;;;;;5082404;28;32266;-70
2021/04/21 09:47:30;;;;;;;30.08;13.45;;;;;;;;;;5081855;28;31340;-71
2021/04/21 09:49:58;;;;;;;34.03;15.90;;;;;;;;;;5082911;28;32995;-70
2021/04/21 09:52:24;;;;;;;32.15;14.68;;;;;;;;;;5082208;28;32677;-70
2021/04/21 09:54:51;;;;;;;30.08;14.65;;;;;;;;;;5082230;28;32482;-70
2021/04/21 09:57:34;;;;;;;33.53;15.13;;;;;;;;;;5082240;28;32053;-70
2021/04/21 09:59:59;;;;;;;29.10;12.43;;;;;;;;;;5079602;28;32035;-70
2021/04/21 10:02:31;;;;;;;32.33;15.10;;;;;;;;;;5081581;28;32507;-70
2021/04/21 10:05:18;;;;;;;23.85;10.80;;;;;;;;;;5081780;28;32935;-70
2021/04/21 10:07:43;;;;;;;28.63;13.75;;;;;;;;;;5082006;28;31916;-70
2021/04/21 10:10:09;;;;;;;14.75;5.75;;;;;;;;;;5082037;28;32088;-70
2021/04/21 10:12:36;;;;;;;30.58;13.93;;;;;;;;;;5081972;28;32236;-70
2021/04/21 10:15:09;;;;;;;23.35;9.25;;;;;;;;;;5082045;28;32181;-70
2021/04/21 10:17:41;;;;;;;38.63;17.55;;;;;;;;;;5079406;28;33011;-70
2021/04/21 10:20:10;;;;;;;35.85;14.88;;;;;;;;;;5080901;28;31983;-70
2021/04/21 10:22:36;;;;;;;37.53;17.40;;;;;;;;;;5081553;28;32589;-70
2021/04/21 10:25:02;;;;;;;37.70;16.10;;;;;;;;;;5081725;28;32870;-70
2021/04/21 10:27:28;;;;;;;34.65;16.20;;;;;;;;;;5081299;28;31832;-70
2021/04/21 10:29:54;;;;;;;33.50;16.10;;;;;;;;;;5080866;28;30383;-71
2021/04/21 10:32:20;;;;;;;33.30;18.27;;;;;;;;;;5082055;28;32790;-71
2021/04/21 10:34:46;;;;;;;37.10;16.48;;;;;;;;;;5081419;28;32237;-70
2021/04/21 10:37:13;;;;;;;35.13;15.80;;;;;;;;;;5081653;28;31973;-70
2021/04/21 10:39:39;;;;;;;33.58;16.02;;;;;;;;;;5080247;28;31357;-72
2021/04/21 10:42:05;;;;;;;34.58;15.40;;;;;;;;;;5081599;28;32691;-74
2021/04/21 10:44:32;;;;;;;34.58;15.60;;;;;;;;;;5081697;28;32383;-70
2021/04/21 10:47:18;;;;;;;35.38;15.05;;;;;;;;;;5081456;28;32992;-75
2021/04/21 10:49:58;;;;;;;30.95;15.20;;;;;;;;;;5081465;28;31881;-74
2021/04/21 10:52:26;;;;;;;33.67;16.45;;;;;;;;;;5083045;28;37611;-72
2021/04/21 10:54:53;;;;;;;23.10;12.07;;;;;;;;;;5084237;28;32190;-70
2021/04/21 10:57:22;;;;;;;36.78;14.05;;;;;;;;;;5082396;28;32044;-74
2021/04/21 11:00:07;;;;;;;31.90;14.77;;;;;;;;;;5081634;28;32043;-69
2021/04/21 11:02:41;;;;;;;36.50;18.17;;;;;;;;;;5078628;28;32491;-70
2021/04/21 11:05:08;;;;;;;25.58;13.18;;;;;;;;;;5080821;28;32292;-72
2021/04/21 11:07:45;;;;;;;41.25;18.40;;;;;;;;;;5081574;28;33068;-71
2021/04/21 11:10:31;;;;;;;41.60;16.95;;;;;;;;;;5078571;28;32013;-71
2021/04/21 11:12:59;;;;;;;33.60;15.70;;;;;;;;;;5078077;28;32424;-70
2021/04/21 11:15:35;;;;;;;6.57;3.25;;;;;;;;;;5081070;28;32367;-71
2021/04/21 11:18:10;;;;;;;38.28;16.10;;;;;;;;;;5078102;28;32120;-71
2021/04/21 11:20:45;;;;;;;32.95;15.93;;;;;;;;;;5081001;28;32084;-72
2021/04/21 11:23:29;;;;;;;32.83;16.95;;;;;;;;;;5080926;28;33607;-72
2021/04/21 11:26:14;;;;;;;32.35;16.85;;;;;;;;;;5081047;28;32380;-72
2021/04/21 11:28:59;;;;;;;39.53;17.17;;;;;;;;;;5079398;28;30642;-71
2021/04/21 11:31:49;;;;;;;42.75;19.55;;;;;;;;;;5082357;28;31867;-71
2021/04/21 11:34:17;;;;;;;32.53;13.90;;;;;;;;;;5083998;28;32816;-70
2021/04/21 11:36:49;;;;;;;23.63;10.80;;;;;;;;;;5084016;28;32331;-70
2021/04/21 11:39:15;;;;;;;34.28;15.27;;;;;;;;;;5084097;28;32943;-70
2021/04/21 11:41:45;;;;;;;36.22;16.80;;;;;;;;;;5084181;28;32027;-71
2021/04/21 11:44:30;;;;;;;29.80;15.18;;;;;;;;;;5081512;28;32616;-70
2021/04/21 11:46:57;;;;;;;39.30;18.10;;;;;;;;;;5084356;28;32297;-71
2021/04/21 11:49:41;;;;;;;44.95;17.83;;;;;;;;;;5084251;28;31836;-71
2021/04/21 11:52:07;;;;;;;35.08;17.35;;;;;;;;;;5084038;28;32567;-70
2021/04/21 11:54:37;;;;;;;42.50;19.15;;;;;;;;;;5084041;28;32385;-71
2021/04/21 11:57:02;;;;;;;30.23;14.75;;;;;;;;;;5083778;28;32263;-70
2021/04/21 11:59:29;;;;;;;43.80;18.98;;;;;;;;;;5083879;28;32983;-71
2021/04/21 12:01:54;;;;;;;43.40;19.70;;;;;;;;;;5084228;28;32964;-71
2021/04/21 12:04:20;;;;;;;46.65;21.92;;;;;;;;;;5083939;28;33552;-71
2021/04/21 12:06:46;;;;;;;24.17;10.98;;;;;;;;;;5084678;28;33141;-72
2021/04/21 12:09:12;;;;;;;48.42;19.80;;;;;;;;;;5084024;28;33063;-72
2021/04/21 12:11:37;;;;;;;19.65;9.10;;;;;;;;;;5084054;28;32144;-72
2021/04/21 12:14:03;;;;;;;40.25;20.35;;;;;;;;;;5083466;28;32694;-72
2021/04/21 12:16:32;;;;;;;41.72;19.10;;;;;;;;;;5083017;28;31075;-72
2021/04/21 12:18:59;;;;;;;37.67;14.65;;;;;;;;;;5083814;28;32092;-72
2021/04/21 12:21:27;;;;;;;33.67;14.90;;;;;;;;;;5083333;28;33008;-70
2021/04/21 12:24:05;;;;;;;47.17;22.60;;;;;;;;;;5083569;28;32590;-71
2021/04/21 12:26:33;;;;;;;43.30;18.98;;;;;;;;;;5082813;28;33324;-71
2021/04/21 12:29:04;;;;;;;43.58;19.48;;;;;;;;;;5083967;28;31963;-71
2021/04/21 12:31:31;;;;;;;48.83;21.45;;;;;;;;;;5083489;28;32581;-71
2021/04/21 12:33:58;;;;;;;40.40;19.48;;;;;;;;;;5084087;28;33622;-73
2021/04/21 12:36:34;;;;;;;45.28;19.92;;;;;;;;;;5084365;28;32499;-72
2021/04/21 12:39:02;;;;;;;23.10;10.32;;;;;;;;;;5083691;28;33021;-72
2021/04/21 12:41:28;;;;;;;40.90;17.95;;;;;;;;;;5083337;28;31916;-72
2021/04/21 12:43:54;;;;;;;38.33;20.45;;;;;;;;;;5082571;28;33707;-71
2021/04/21 12:46:21;;;;;;;34.78;15.52;;;;;;;;;;5083185;28;32143;-70
2021/04/21 12:48:51;;;;;;;39.10;16.42;;;;;;;;;;5083276;28;32073;-74
2021/04/21 12:51:21;;;;;;;37.85;18.60;;;;;;;;;;5083186;28;32697;-72
2021/04/21 12:53:47;;;;;;;37.50;16.38;;;;;;;;;;5083775;28;32569;-72
2021/04/21 12:56:14;;;;;;;40.55;19.55;;;;;;;;;;5083237;28;32285;-70
2021/04/21 12:58:42;;;;;;;30.60;13.23;;;;;;;;;;5083245;28;31911;-71
2021/04/21 13:01:08;;;;;;;40.22;19.77;;;;;;;;;;5083727;28;32010;-72
2021/04/21 13:03:34;;;;;;;35.42;17.30;;;;;;;;;;5082981;28;32701;-71
2021/04/21 13:05:59;;;;;;;30.10;9.75;;;;;;;;;;5082948;28;32951;-71
2021/04/21 13:08:26;;;;;;;40.53;20.08;;;;;;;;;;5083398;28;31893;-71
2021/04/21 13:10:53;;;;;;;35.20;16.17;;;;;;;;;;5080382;28;32070;-71
2021/04/21 13:13:20;;;;;;;40.22;21.58;;;;;;;;;;5082728;28;32459;-73
2021/04/21 13:15:46;;;;;;;40.85;22.35;;;;;;;;;;5082975;28;32357;-72
2021/04/21 13:18:12;;;;;;;38.13;18.52;;;;;;;;;;5082967;28;31843;-71
2021/04/21 13:20:38;;;;;;;46.38;22.10;;;;;;;;;;5082660;28;32089;-70
2021/04/21 13:23:11;;;;;;;47.80;23.63;;;;;;;;;;5082645;28;32533;-72
2021/04/21 13:25:36;;;;;;;40.88;20.38;;;;;;;;;;5083211;28;36664;-71
2021/04/21 13:28:12;;;;;;;45.90;21.70;;;;;;;;;;5080925;28;29974;-71
2021/04/21 13:30:38;;;;;;;47.00;23.05;;;;;;;;;;5081391;28;30483;-71
2021/04/21 13:33:04;;;;;;;41.00;19.38;;;;;;;;;;5082602;28;33608;-71
2021/04/21 13:35:31;;;;;;;16.80;8.35;;;;;;;;;;5082545;28;32136;-72
2021/04/21 13:38:00;;;;;;;25.05;13.25;;;;;;;;;;5082420;28;31900;-71
2021/04/21 13:40:31;;;;;;;35.65;16.23;;;;;;;;;;5082618;28;31134;-71
2021/04/21 13:42:57;;;;;;;42.30;17.75;;;;;;;;;;5082264;28;32571;-72
2021/04/21 13:45:22;;;;;;;53.58;27.00;;;;;;;;;;5082500;28;32971;-71
2021/04/21 13:47:50;;;;;;;26.85;13.90;;;;;;;;;;5081747;28;37828;-70
2021/04/21 13:50:19;;;;;;;32.40;15.57;;;;;;;;;;5082249;28;32205;-70
2021/04/21 13:52:45;;;;;;;43.67;21.33;;;;;;;;;;5082679;28;33179;-73
2021/04/21 13:55:12;;;;;;;23.13;11.75;;;;;;;;;;5081252;28;32851;-71
2021/04/21 13:57:37;;;;;;;54.33;24.92;;;;;;;;;;5082308;28;31968;-72
2021/04/21 14:00:06;;;;;;;32.92;14.90;;;;;;;;;;5082157;28;32940;-71
2021/04/21 14:02:37;;;;;;;46.40;23.30;;;;;;;;;;5082022;28;33916;-71
2021/04/21 14:05:03;;;;;;;43.17;24.02;;;;;;;;;;5082143;28;32898;-70
2021/04/21 14:07:29;;;;;;;52.28;26.77;;;;;;;;;;5081937;28;31272;-72
2021/04/21 14:09:55;;;;;;;44.67;17.27;;;;;;;;;;5081989;28;33030;-72
2021/04/21 14:12:20;;;;;;;51.63;26.55;;;;;;;;;;5081971;28;32437;-72
2021/04/21 14:14:46;;;;;;;49.53;23.48;;;;;;;;;;5082039;28;32208;-75
2021/04/21 14:17:13;;;;;;;25.27;12.15;;;;;;;;;;5081817;28;32922;-70
2021/04/21 14:19:39;;;;;;;49.10;22.52;;;;;;;;;;5082367;28;32091;-74
2021/04/21 14:22:06;;;;;;;42.95;23.58;;;;;;;;;;5081905;28;32625;-71
2021/04/21 14:24:32;;;;;;;42.17;22.70;;;;;;;;;;5082420;28;33205;-71
2021/04/21 14:26:58;;;;;;;38.83;20.70;;;;;;;;;;5081096;28;33030;-71
2021/04/21 14:29:23;;;;;;;40.95;20.08;;;;;;;;;;5081243;28;32078;-72
2021/04/21 14:31:49;;;;;;;41.47;16.95;;;;;;;;;;5081739;28;32537;-71
2021/04/21 14:34:15;;;;;;;40.85;20.38;;;;;;;;;;5081691;28;32243;-72